sensor_id;sensor_type;location;lat;lon;timestamp;temperature;humidity
3466;DHT22;1747;48.884;9.160;2023-01-28T00:01:05;2.50;99.90
3466;DHT22;1747;48.884;9.160;2023-01-28T00:03:32;2.50;99.90
3466;DHT22;1747;48.884;9.160;2023-01-28T00:06:03;2.60;99.90
3466;DHT22;1747;48.884;9.160;2023-01-28T00:08:30;2.60;99.90
3466;DHT22;1747;48.884;9.160;2023-01-28T00:10:58;2.50;99.90
3466;DHT22;1747;48.884;9.160;2023-01-28T00:13:27;2.50;99.90
3466;DHT22;1747;48.884;9.160;2023-01-28T00:15:55;2.50;99.90
3466;DHT22;1747;48.884;9.160;2023-01-28T00:18:22;2.60;99.90
3466;DHT22;1747;48.884;9.160;2023-01-28T00:20:56;2.60;99.90
3466;DHT22;1747;48.884;9.160;2023-01-28T00:23:24;2.60;99.90
3466;DHT22;1747;48.884;9.160;2023-01-28T00:25:51;2.60;99.90
3466;DHT22;1747;48.884;9.160;2023-01-28T00:28:19;2.60;99.90
3466;DHT22;1747;48.884;9.160;2023-01-28T00:30:47;2.60;99.90
3466;DHT22;1747;48.884;9.160;2023-01-28T00:33:14;2.60;99.90
3466;DHT22;1747;48.884;9.160;2023-01-28T00:35:41;2.60;99.90
3466;DHT22;1747;48.884;9.160;2023-01-28T00:38:08;2.60;99.90
3466;DHT22;1747;48.884;9.160;2023-01-28T00:40:35;2.60;99.90
3466;DHT22;1747;48.884;9.160;2023-01-28T00:43:02;2.60;99.90
3466;DHT22;1747;48.884;9.160;2023-01-28T00:45:29;2.60;99.90
3466;DHT22;1747;48.884;9.160;2023-01-28T00:47:57;2.60;99.90
3466;DHT22;1747;48.884;9.160;2023-01-28T00:50:24;2.60;99.90
3466;DHT22;1747;48.884;9.160;2023-01-28T00:52:51;2.60;99.90
3466;DHT22;1747;48.884;9.160;2023-01-28T00:55:17;2.60;99.90
3466;DHT22;1747;48.884;9.160;2023-01-28T00:57:46;2.60;99.90
3466;DHT22;1747;48.884;9.160;2023-01-28T01:00:13;2.60;99.90
3466;DHT22;1747;48.884;9.160;2023-01-28T01:02:41;2.60;99.90
3466;DHT22;1747;48.884;9.160;2023-01-28T01:05:09;2.60;99.90
3466;DHT22;1747;48.884;9.160;2023-01-28T01:07:36;2.60;99.90
3466;DHT22;1747;48.884;9.160;2023-01-28T01:10:08;2.60;99.90
3466;DHT22;1747;48.884;9.160;2023-01-28T01:12:35;2.60;99.90
3466;DHT22;1747;48.884;9.160;2023-01-28T01:15:02;2.60;99.90
3466;DHT22;1747;48.884;9.160;2023-01-28T01:17:29;2.60;99.90
3466;DHT22;1747;48.884;9.160;2023-01-28T01:19:56;2.60;99.90
3466;DHT22;1747;48.884;9.160;2023-01-28T01:22:24;2.60;99.90
3466;DHT22;1747;48.884;9.160;2023-01-28T01:24:51;2.60;99.90
3466;DHT22;1747;48.884;9.160;2023-01-28T01:27:18;2.70;99.90
3466;DHT22;1747;48.884;9.160;2023-01-28T01:29:44;2.70;99.90
3466;DHT22;1747;48.884;9.160;2023-01-28T01:32:11;2.70;99.90
3466;DHT22;1747;48.884;9.160;2023-01-28T01:34:38;2.60;99.90
3466;DHT22;1747;48.884;9.160;2023-01-28T01:37:05;2.60;99.90
3466;DHT22;1747;48.884;9.160;2023-01-28T01:39:34;2.60;99.90
3466;DHT22;1747;48.884;9.160;2023-01-28T01:42:01;2.50;99.90
3466;DHT22;1747;48.884;9.160;2023-01-28T01:44:54;2.60;99.90
3466;DHT22;1747;48.884;9.160;2023-01-28T01:47:24;2.60;99.90
3466;DHT22;1747;48.884;9.160;2023-01-28T01:49:53;2.70;99.90
3466;DHT22;1747;48.884;9.160;2023-01-28T01:52:23;2.60;99.90
3466;DHT22;1747;48.884;9.160;2023-01-28T01:54:55;2.60;99.90
3466;DHT22;1747;48.884;9.160;2023-01-28T01:57:26;2.60;99.90
3466;DHT22;1747;48.884;9.160;2023-01-28T01:59:54;2.60;99.90
3466;DHT22;1747;48.884;9.160;2023-01-28T02:02:29;2.60;99.90
3466;DHT22;1747;48.884;9.160;2023-01-28T02:04:56;2.60;99.90
3466;DHT22;1747;48.884;9.160;2023-01-28T02:07:23;2.60;99.90
3466;DHT22;1747;48.884;9.160;2023-01-28T02:09:50;2.60;99.90
3466;DHT22;1747;48.884;9.160;2023-01-28T02:12:20;2.70;99.90
3466;DHT22;1747;48.884;9.160;2023-01-28T02:14:51;2.60;99.90
3466;DHT22;1747;48.884;9.160;2023-01-28T02:17:19;2.60;99.90
3466;DHT22;1747;48.884;9.160;2023-01-28T02:19:52;2.60;99.90
3466;DHT22;1747;48.884;9.160;2023-01-28T02:28:31;2.60;99.90
3466;DHT22;1747;48.884;9.160;2023-01-28T02:31:04;2.60;99.90
3466;DHT22;1747;48.884;9.160;2023-01-28T02:33:37;2.60;99.90
3466;DHT22;1747;48.884;9.160;2023-01-28T02:36:14;2.60;99.90
3466;DHT22;1747;48.884;9.160;2023-01-28T02:38:46;2.50;99.90
3466;DHT22;1747;48.884;9.160;2023-01-28T02:41:20;2.60;99.90
3466;DHT22;1747;48.884;9.160;2023-01-28T02:43:50;2.60;99.90
3466;DHT22;1747;48.884;9.160;2023-01-28T02:46:20;2.60;99.90
3466;DHT22;1747;48.884;9.160;2023-01-28T02:49:08;2.60;99.90
3466;DHT22;1747;48.884;9.160;2023-01-28T02:52:06;2.60;99.90
3466;DHT22;1747;48.884;9.160;2023-01-28T02:54:40;2.60;99.90
3466;DHT22;1747;48.884;9.160;2023-01-28T02:57:14;2.60;99.90
3466;DHT22;1747;48.884;9.160;2023-01-28T02:59:51;2.60;99.90
3466;DHT22;1747;48.884;9.160;2023-01-28T03:02:24;2.60;99.90
3466;DHT22;1747;48.884;9.160;2023-01-28T03:04:58;2.60;99.90
3466;DHT22;1747;48.884;9.160;2023-01-28T03:07:28;2.50;99.90
3466;DHT22;1747;48.884;9.160;2023-01-28T03:10:00;2.50;99.90
3466;DHT22;1747;48.884;9.160;2023-01-28T03:12:29;2.50;99.90
3466;DHT22;1747;48.884;9.160;2023-01-28T03:15:16;2.60;99.90
3466;DHT22;1747;48.884;9.160;2023-01-28T03:18:05;2.50;99.90
3466;DHT22;1747;48.884;9.160;2023-01-28T03:20:55;2.60;99.90
3466;DHT22;1747;48.884;9.160;2023-01-28T03:23:46;2.50;99.90
3466;DHT22;1747;48.884;9.160;2023-01-28T03:26:34;2.50;99.90
3466;DHT22;1747;48.884;9.160;2023-01-28T03:29:20;2.50;99.90
3466;DHT22;1747;48.884;9.160;2023-01-28T03:32:07;2.60;99.90
3466;DHT22;1747;48.884;9.160;2023-01-28T03:34:52;2.60;99.90
3466;DHT22;1747;48.884;9.160;2023-01-28T03:37:37;2.60;99.90
3466;DHT22;1747;48.884;9.160;2023-01-28T03:40:06;2.50;99.90
3466;DHT22;1747;48.884;9.160;2023-01-28T03:42:33;2.50;99.90
3466;DHT22;1747;48.884;9.160;2023-01-28T03:45:00;2.50;99.90
3466;DHT22;1747;48.884;9.160;2023-01-28T03:47:31;2.50;99.90
3466;DHT22;1747;48.884;9.160;2023-01-28T03:49:58;2.60;99.90
3466;DHT22;1747;48.884;9.160;2023-01-28T03:52:27;2.60;99.90
3466;DHT22;1747;48.884;9.160;2023-01-28T03:54:54;2.60;99.90
3466;DHT22;1747;48.884;9.160;2023-01-28T03:57:23;2.60;99.90
3466;DHT22;1747;48.884;9.160;2023-01-28T03:59:51;2.60;99.90
3466;DHT22;1747;48.884;9.160;2023-01-28T04:02:19;2.60;99.90
3466;DHT22;1747;48.884;9.160;2023-01-28T04:04:48;2.60;99.90
3466;DHT22;1747;48.884;9.160;2023-01-28T04:07:15;2.60;99.90
3466;DHT22;1747;48.884;9.160;2023-01-28T04:09:42;2.70;99.90
3466;DHT22;1747;48.884;9.160;2023-01-28T04:12:09;2.70;99.90
3466;DHT22;1747;48.884;9.160;2023-01-28T04:14:36;2.70;99.90
3466;DHT22;1747;48.884;9.160;2023-01-28T04:17:04;2.60;99.90
3466;DHT22;1747;48.884;9.160;2023-01-28T04:19:32;2.70;99.90
3466;DHT22;1747;48.884;9.160;2023-01-28T04:22:04;2.60;99.90
3466;DHT22;1747;48.884;9.160;2023-01-28T04:24:30;2.60;99.90
3466;DHT22;1747;48.884;9.160;2023-01-28T04:26:57;2.60;99.90
3466;DHT22;1747;48.884;9.160;2023-01-28T04:29:24;2.60;99.90
3466;DHT22;1747;48.884;9.160;2023-01-28T04:31:51;2.60;99.90
3466;DHT22;1747;48.884;9.160;2023-01-28T04:34:18;2.60;99.90
3466;DHT22;1747;48.884;9.160;2023-01-28T04:36:45;2.60;99.90
3466;DHT22;1747;48.884;9.160;2023-01-28T04:39:13;2.60;99.90
3466;DHT22;1747;48.884;9.160;2023-01-28T04:41:40;2.60;99.90
3466;DHT22;1747;48.884;9.160;2023-01-28T04:44:07;2.60;99.90
3466;DHT22;1747;48.884;9.160;2023-01-28T04:46:34;2.60;99.90
3466;DHT22;1747;48.884;9.160;2023-01-28T04:49:01;2.60;99.90
3466;DHT22;1747;48.884;9.160;2023-01-28T04:51:28;2.60;99.90
3466;DHT22;1747;48.884;9.160;2023-01-28T04:53:54;2.70;99.90
3466;DHT22;1747;48.884;9.160;2023-01-28T04:56:22;2.70;99.90
3466;DHT22;1747;48.884;9.160;2023-01-28T04:58:49;2.70;99.90
3466;DHT22;1747;48.884;9.160;2023-01-28T05:01:16;2.70;99.90
3466;DHT22;1747;48.884;9.160;2023-01-28T05:03:43;2.70;99.90
3466;DHT22;1747;48.884;9.160;2023-01-28T05:06:10;2.60;99.90
3466;DHT22;1747;48.884;9.160;2023-01-28T05:08:37;2.70;99.90
3466;DHT22;1747;48.884;9.160;2023-01-28T05:11:03;2.70;99.90
3466;DHT22;1747;48.884;9.160;2023-01-28T05:13:32;2.70;99.90
3466;DHT22;1747;48.884;9.160;2023-01-28T05:15:58;2.70;99.90
3466;DHT22;1747;48.884;9.160;2023-01-28T05:18:25;2.70;99.90
3466;DHT22;1747;48.884;9.160;2023-01-28T05:20:52;2.70;99.90
3466;DHT22;1747;48.884;9.160;2023-01-28T05:23:19;2.70;99.90
3466;DHT22;1747;48.884;9.160;2023-01-28T05:25:46;2.70;99.90
3466;DHT22;1747;48.884;9.160;2023-01-28T05:28:13;2.70;99.90
3466;DHT22;1747;48.884;9.160;2023-01-28T05:30:41;2.70;99.90
3466;DHT22;1747;48.884;9.160;2023-01-28T05:33:08;2.60;99.90
3466;DHT22;1747;48.884;9.160;2023-01-28T05:35:34;2.70;99.90
3466;DHT22;1747;48.884;9.160;2023-01-28T05:38:02;2.70;99.90
3466;DHT22;1747;48.884;9.160;2023-01-28T05:40:28;2.70;99.90
3466;DHT22;1747;48.884;9.160;2023-01-28T05:42:55;2.70;99.90
3466;DHT22;1747;48.884;9.160;2023-01-28T05:45:22;2.60;99.90
3466;DHT22;1747;48.884;9.160;2023-01-28T05:47:50;2.60;99.90
3466;DHT22;1747;48.884;9.160;2023-01-28T05:50:17;2.60;99.90
3466;DHT22;1747;48.884;9.160;2023-01-28T05:52:44;2.70;99.90
3466;DHT22;1747;48.884;9.160;2023-01-28T05:55:11;2.70;99.90
3466;DHT22;1747;48.884;9.160;2023-01-28T05:57:38;2.70;99.90
3466;DHT22;1747;48.884;9.160;2023-01-28T06:00:07;2.80;99.90
3466;DHT22;1747;48.884;9.160;2023-01-28T06:02:34;2.80;99.90
3466;DHT22;1747;48.884;9.160;2023-01-28T06:05:02;2.80;99.90
3466;DHT22;1747;48.884;9.160;2023-01-28T06:07:29;2.80;99.90
3466;DHT22;1747;48.884;9.160;2023-01-28T06:09:55;2.70;99.90
3466;DHT22;1747;48.884;9.160;2023-01-28T06:12:22;2.70;99.90
3466;DHT22;1747;48.884;9.160;2023-01-28T06:14:49;2.80;99.90
3466;DHT22;1747;48.884;9.160;2023-01-28T06:17:16;2.70;99.90
3466;DHT22;1747;48.884;9.160;2023-01-28T06:19:43;2.80;99.90
3466;DHT22;1747;48.884;9.160;2023-01-28T06:22:11;2.80;99.90
3466;DHT22;1747;48.884;9.160;2023-01-28T06:24:38;2.80;99.90
3466;DHT22;1747;48.884;9.160;2023-01-28T06:27:05;2.80;99.90
3466;DHT22;1747;48.884;9.160;2023-01-28T06:29:32;2.90;99.90
3466;DHT22;1747;48.884;9.160;2023-01-28T06:32:00;2.90;99.90
3466;DHT22;1747;48.884;9.160;2023-01-28T06:34:28;2.90;99.90
3466;DHT22;1747;48.884;9.160;2023-01-28T06:36:58;2.90;99.90
3466;DHT22;1747;48.884;9.160;2023-01-28T06:39:29;2.90;99.90
3466;DHT22;1747;48.884;9.160;2023-01-28T06:41:58;2.90;99.90
3466;DHT22;1747;48.884;9.160;2023-01-28T06:44:25;2.90;99.90
3466;DHT22;1747;48.884;9.160;2023-01-28T06:46:52;3.00;99.90
3466;DHT22;1747;48.884;9.160;2023-01-28T06:49:19;3.00;99.90
3466;DHT22;1747;48.884;9.160;2023-01-28T06:51:46;3.00;99.90
3466;DHT22;1747;48.884;9.160;2023-01-28T06:54:15;3.00;99.90
3466;DHT22;1747;48.884;9.160;2023-01-28T06:56:46;3.00;99.90
3466;DHT22;1747;48.884;9.160;2023-01-28T06:59:16;3.00;99.90
3466;DHT22;1747;48.884;9.160;2023-01-28T07:01:43;3.00;99.90
3466;DHT22;1747;48.884;9.160;2023-01-28T07:04:10;3.00;99.90
3466;DHT22;1747;48.884;9.160;2023-01-28T07:06:40;2.90;99.90
3466;DHT22;1747;48.884;9.160;2023-01-28T07:09:07;2.90;99.90
3466;DHT22;1747;48.884;9.160;2023-01-28T07:11:34;2.90;99.90
3466;DHT22;1747;48.884;9.160;2023-01-28T07:14:04;2.90;99.90
3466;DHT22;1747;48.884;9.160;2023-01-28T07:16:35;2.90;99.90
3466;DHT22;1747;48.884;9.160;2023-01-28T07:19:02;2.90;99.90
3466;DHT22;1747;48.884;9.160;2023-01-28T07:21:29;2.90;99.90
3466;DHT22;1747;48.884;9.160;2023-01-28T07:23:55;2.90;99.90
3466;DHT22;1747;48.884;9.160;2023-01-28T07:26:23;2.90;99.90
3466;DHT22;1747;48.884;9.160;2023-01-28T07:28:49;2.90;99.90
3466;DHT22;1747;48.884;9.160;2023-01-28T07:31:17;2.90;99.90
3466;DHT22;1747;48.884;9.160;2023-01-28T07:33:44;2.90;99.90
3466;DHT22;1747;48.884;9.160;2023-01-28T07:36:11;3.00;99.90
3466;DHT22;1747;48.884;9.160;2023-01-28T07:38:38;3.00;99.90
3466;DHT22;1747;48.884;9.160;2023-01-28T07:41:05;2.90;99.90
3466;DHT22;1747;48.884;9.160;2023-01-28T07:43:31;3.00;99.90
3466;DHT22;1747;48.884;9.160;2023-01-28T07:45:59;3.00;99.90
3466;DHT22;1747;48.884;9.160;2023-01-28T07:48:28;3.00;99.90
3466;DHT22;1747;48.884;9.160;2023-01-28T07:50:57;3.00;99.90
3466;DHT22;1747;48.884;9.160;2023-01-28T07:53:24;3.00;99.90
3466;DHT22;1747;48.884;9.160;2023-01-28T07:55:51;3.00;99.90
3466;DHT22;1747;48.884;9.160;2023-01-28T07:58:23;3.00;99.90
3466;DHT22;1747;48.884;9.160;2023-01-28T08:00:50;3.10;99.90
3466;DHT22;1747;48.884;9.160;2023-01-28T08:03:17;3.10;99.90
3466;DHT22;1747;48.884;9.160;2023-01-28T08:05:46;3.20;99.90
3466;DHT22;1747;48.884;9.160;2023-01-28T08:08:14;3.20;99.90
3466;DHT22;1747;48.884;9.160;2023-01-28T08:10:41;3.20;99.90
3466;DHT22;1747;48.884;9.160;2023-01-28T08:13:09;3.30;99.90
3466;DHT22;1747;48.884;9.160;2023-01-28T08:15:37;3.30;99.90
3466;DHT22;1747;48.884;9.160;2023-01-28T08:18:05;3.40;99.90
3466;DHT22;1747;48.884;9.160;2023-01-28T08:20:32;3.50;99.90
3466;DHT22;1747;48.884;9.160;2023-01-28T08:23:08;3.50;99.90
3466;DHT22;1747;48.884;9.160;2023-01-28T08:25:37;3.50;99.90
3466;DHT22;1747;48.884;9.160;2023-01-28T08:28:04;3.40;99.90
3466;DHT22;1747;48.884;9.160;2023-01-28T08:30:32;3.40;99.90
3466;DHT22;1747;48.884;9.160;2023-01-28T08:32:59;3.40;99.90
3466;DHT22;1747;48.884;9.160;2023-01-28T08:35:27;3.40;99.90
3466;DHT22;1747;48.884;9.160;2023-01-28T08:37:54;3.40;99.90
3466;DHT22;1747;48.884;9.160;2023-01-28T08:40:22;3.50;99.90
3466;DHT22;1747;48.884;9.160;2023-01-28T08:42:51;3.50;99.90
3466;DHT22;1747;48.884;9.160;2023-01-28T08:45:19;3.50;99.90
3466;DHT22;1747;48.884;9.160;2023-01-28T08:47:47;3.50;99.90
3466;DHT22;1747;48.884;9.160;2023-01-28T08:50:15;3.50;99.90
3466;DHT22;1747;48.884;9.160;2023-01-28T08:52:42;3.60;99.90
3466;DHT22;1747;48.884;9.160;2023-01-28T08:55:10;3.70;99.90
3466;DHT22;1747;48.884;9.160;2023-01-28T08:57:38;3.70;99.90
3466;DHT22;1747;48.884;9.160;2023-01-28T09:00:08;3.80;99.90
3466;DHT22;1747;48.884;9.160;2023-01-28T09:02:35;3.70;99.90
3466;DHT22;1747;48.884;9.160;2023-01-28T09:05:02;3.70;99.90
3466;DHT22;1747;48.884;9.160;2023-01-28T09:07:29;3.90;99.90
3466;DHT22;1747;48.884;9.160;2023-01-28T09:09:56;3.90;99.90
3466;DHT22;1747;48.884;9.160;2023-01-28T09:12:23;3.90;99.90
3466;DHT22;1747;48.884;9.160;2023-01-28T09:14:52;3.90;99.90
3466;DHT22;1747;48.884;9.160;2023-01-28T09:17:19;3.90;99.90
3466;DHT22;1747;48.884;9.160;2023-01-28T09:19:46;3.90;99.90
3466;DHT22;1747;48.884;9.160;2023-01-28T09:22:12;3.90;99.90
3466;DHT22;1747;48.884;9.160;2023-01-28T09:24:39;3.90;99.90
3466;DHT22;1747;48.884;9.160;2023-01-28T09:27:06;3.90;99.90
3466;DHT22;1747;48.884;9.160;2023-01-28T09:29:33;3.90;99.90
3466;DHT22;1747;48.884;9.160;2023-01-28T09:32:01;3.90;99.90
3466;DHT22;1747;48.884;9.160;2023-01-28T09:34:28;3.90;99.90
3466;DHT22;1747;48.884;9.160;2023-01-28T09:36:55;3.90;99.90
3466;DHT22;1747;48.884;9.160;2023-01-28T09:39:22;3.90;99.90
3466;DHT22;1747;48.884;9.160;2023-01-28T09:41:59;3.90;99.90
3466;DHT22;1747;48.884;9.160;2023-01-28T09:44:37;3.90;99.90
3466;DHT22;1747;48.884;9.160;2023-01-28T09:47:20;3.80;99.90
3466;DHT22;1747;48.884;9.160;2023-01-28T09:49:51;3.90;99.90
3466;DHT22;1747;48.884;9.160;2023-01-28T09:52:23;3.90;99.90
3466;DHT22;1747;48.884;9.160;2023-01-28T09:54:54;3.90;99.90
3466;DHT22;1747;48.884;9.160;2023-01-28T09:57:23;3.90;99.90
3466;DHT22;1747;48.884;9.160;2023-01-28T09:59:50;3.90;99.90
3466;DHT22;1747;48.884;9.160;2023-01-28T10:02:34;3.90;99.90
3466;DHT22;1747;48.884;9.160;2023-01-28T10:05:15;3.90;99.90
3466;DHT22;1747;48.884;9.160;2023-01-28T10:07:48;3.90;99.90
3466;DHT22;1747;48.884;9.160;2023-01-28T10:10:21;3.90;99.90
3466;DHT22;1747;48.884;9.160;2023-01-28T10:13:03;3.90;99.90
3466;DHT22;1747;48.884;9.160;2023-01-28T10:18:38;4.10;99.90
3466;DHT22;1747;48.884;9.160;2023-01-28T10:21:11;4.10;99.90
3466;DHT22;1747;48.884;9.160;2023-01-28T10:23:48;4.10;99.90
3466;DHT22;1747;48.884;9.160;2023-01-28T10:26:22;4.20;99.90
3466;DHT22;1747;48.884;9.160;2023-01-28T10:28:53;4.10;99.90
3466;DHT22;1747;48.884;9.160;2023-01-28T10:31:22;4.10;99.90
3466;DHT22;1747;48.884;9.160;2023-01-28T10:33:50;4.10;99.90
3466;DHT22;1747;48.884;9.160;2023-01-28T10:36:18;4.10;99.90
3466;DHT22;1747;48.884;9.160;2023-01-28T10:38:45;4.10;99.90
3466;DHT22;1747;48.884;9.160;2023-01-28T10:41:18;4.10;99.90
3466;DHT22;1747;48.884;9.160;2023-01-28T10:43:48;4.20;99.90
3466;DHT22;1747;48.884;9.160;2023-01-28T10:46:19;4.30;99.90
3466;DHT22;1747;48.884;9.160;2023-01-28T10:48:53;4.30;99.90
3466;DHT22;1747;48.884;9.160;2023-01-28T10:51:30;4.30;99.90
3466;DHT22;1747;48.884;9.160;2023-01-28T10:53:57;4.30;99.90
3466;DHT22;1747;48.884;9.160;2023-01-28T10:56:26;4.40;99.90
3466;DHT22;1747;48.884;9.160;2023-01-28T10:58:59;4.40;99.90
3466;DHT22;1747;48.884;9.160;2023-01-28T11:01:39;4.50;99.90
3466;DHT22;1747;48.884;9.160;2023-01-28T11:04:16;4.50;99.90
3466;DHT22;1747;48.884;9.160;2023-01-28T11:06:52;4.50;99.90
3466;DHT22;1747;48.884;9.160;2023-01-28T11:09:20;4.50;99.90
3466;DHT22;1747;48.884;9.160;2023-01-28T11:11:47;4.50;99.90
3466;DHT22;1747;48.884;9.160;2023-01-28T11:14:19;4.50;99.90
3466;DHT22;1747;48.884;9.160;2023-01-28T11:16:47;4.60;99.90
3466;DHT22;1747;48.884;9.160;2023-01-28T11:19:17;4.50;99.90
3466;DHT22;1747;48.884;9.160;2023-01-28T11:21:48;4.60;99.90
3466;DHT22;1747;48.884;9.160;2023-01-28T11:24:21;4.80;99.90
3466;DHT22;1747;48.884;9.160;2023-01-28T11:26:51;4.80;99.90
3466;DHT22;1747;48.884;9.160;2023-01-28T11:29:22;4.80;99.90
3466;DHT22;1747;48.884;9.160;2023-01-28T11:31:50;4.70;99.90
3466;DHT22;1747;48.884;9.160;2023-01-28T11:34:19;4.70;99.90
3466;DHT22;1747;48.884;9.160;2023-01-28T11:36:51;4.50;99.90
3466;DHT22;1747;48.884;9.160;2023-01-28T11:39:23;4.50;99.90
3466;DHT22;1747;48.884;9.160;2023-01-28T11:41:52;4.50;99.90
3466;DHT22;1747;48.884;9.160;2023-01-28T11:44:21;4.50;99.90
3466;DHT22;1747;48.884;9.160;2023-01-28T11:47:04;4.50;99.90
3466;DHT22;1747;48.884;9.160;2023-01-28T11:49:47;4.50;99.90
3466;DHT22;1747;48.884;9.160;2023-01-28T11:52:24;4.50;99.90
3466;DHT22;1747;48.884;9.160;2023-01-28T11:54:59;4.40;99.90
3466;DHT22;1747;48.884;9.160;2023-01-28T11:57:36;4.30;99.90
3466;DHT22;1747;48.884;9.160;2023-01-28T12:00:27;4.30;99.90
3466;DHT22;1747;48.884;9.160;2023-01-28T12:03:05;4.30;99.90
3466;DHT22;1747;48.884;9.160;2023-01-28T12:05:50;4.40;99.90
3466;DHT22;1747;48.884;9.160;2023-01-28T12:08:21;4.40;99.90
3466;DHT22;1747;48.884;9.160;2023-01-28T12:11:05;4.30;99.90
3466;DHT22;1747;48.884;9.160;2023-01-28T12:13:45;4.10;99.90
3466;DHT22;1747;48.884;9.160;2023-01-28T12:16:40;4.00;99.90
3466;DHT22;1747;48.884;9.160;2023-01-28T12:19:35;4.10;99.90
3466;DHT22;1747;48.884;9.160;2023-01-28T12:22:18;4.00;99.90
3466;DHT22;1747;48.884;9.160;2023-01-28T12:25:00;4.00;99.90
3466;DHT22;1747;48.884;9.160;2023-01-28T12:27:36;4.00;99.90
3466;DHT22;1747;48.884;9.160;2023-01-28T12:30:18;3.90;99.90
3466;DHT22;1747;48.884;9.160;2023-01-28T12:33:02;3.90;99.90
3466;DHT22;1747;48.884;9.160;2023-01-28T12:35:41;3.90;99.90
3466;DHT22;1747;48.884;9.160;2023-01-28T12:38:22;3.80;99.90
3466;DHT22;1747;48.884;9.160;2023-01-28T12:40:58;3.70;99.90
3466;DHT22;1747;48.884;9.160;2023-01-28T12:43:48;3.60;99.90
3466;DHT22;1747;48.884;9.160;2023-01-28T12:46:24;3.60;99.90
3466;DHT22;1747;48.884;9.160;2023-01-28T12:48:57;3.70;99.90
3466;DHT22;1747;48.884;9.160;2023-01-28T12:51:29;3.70;99.90
3466;DHT22;1747;48.884;9.160;2023-01-28T12:54:01;3.70;99.90
3466;DHT22;1747;48.884;9.160;2023-01-28T12:56:32;3.70;99.90
3466;DHT22;1747;48.884;9.160;2023-01-28T12:59:03;3.70;99.90
3466;DHT22;1747;48.884;9.160;2023-01-28T13:01:37;3.80;99.90
3466;DHT22;1747;48.884;9.160;2023-01-28T13:04:11;3.80;99.90
3466;DHT22;1747;48.884;9.160;2023-01-28T13:06:41;3.80;99.90
3466;DHT22;1747;48.884;9.160;2023-01-28T13:09:15;3.70;99.90
3466;DHT22;1747;48.884;9.160;2023-01-28T13:11:43;3.60;99.90
3466;DHT22;1747;48.884;9.160;2023-01-28T13:14:11;3.60;99.90
3466;DHT22;1747;48.884;9.160;2023-01-28T13:16:39;3.50;99.90
3466;DHT22;1747;48.884;9.160;2023-01-28T13:19:10;3.50;99.90
3466;DHT22;1747;48.884;9.160;2023-01-28T13:21:46;3.60;99.90
3466;DHT22;1747;48.884;9.160;2023-01-28T13:24:29;3.50;99.90
3466;DHT22;1747;48.884;9.160;2023-01-28T13:26:57;3.40;99.90
3466;DHT22;1747;48.884;9.160;2023-01-28T13:29:29;3.40;99.90
3466;DHT22;1747;48.884;9.160;2023-01-28T13:31:58;3.50;99.90
3466;DHT22;1747;48.884;9.160;2023-01-28T13:34:32;3.50;99.90
3466;DHT22;1747;48.884;9.160;2023-01-28T13:37:05;3.50;99.90
3466;DHT22;1747;48.884;9.160;2023-01-28T13:39:35;3.50;99.90
3466;DHT22;1747;48.884;9.160;2023-01-28T13:42:20;3.40;99.90
3466;DHT22;1747;48.884;9.160;2023-01-28T13:44:47;3.40;99.90
3466;DHT22;1747;48.884;9.160;2023-01-28T13:47:21;3.50;99.90
3466;DHT22;1747;48.884;9.160;2023-01-28T13:49:53;3.50;99.90
3466;DHT22;1747;48.884;9.160;2023-01-28T13:52:25;3.60;99.90
3466;DHT22;1747;48.884;9.160;2023-01-28T13:55:00;3.50;99.90
3466;DHT22;1747;48.884;9.160;2023-01-28T13:58:01;3.50;99.90
3466;DHT22;1747;48.884;9.160;2023-01-28T14:00:46;3.50;99.90
3466;DHT22;1747;48.884;9.160;2023-01-28T14:03:47;3.60;99.90
3466;DHT22;1747;48.884;9.160;2023-01-28T14:09:37;3.60;99.90
3466;DHT22;1747;48.884;9.160;2023-01-28T14:12:33;3.70;99.90
3466;DHT22;1747;48.884;9.160;2023-01-28T14:15:38;3.60;99.90
3466;DHT22;1747;48.884;9.160;2023-01-28T14:18:17;3.60;99.90
3466;DHT22;1747;48.884;9.160;2023-01-28T14:20:46;3.70;99.90
3466;DHT22;1747;48.884;9.160;2023-01-28T14:23:15;3.70;99.90
3466;DHT22;1747;48.884;9.160;2023-01-28T14:25:55;3.70;99.90
3466;DHT22;1747;48.884;9.160;2023-01-28T14:28:34;3.60;99.90
3466;DHT22;1747;48.884;9.160;2023-01-28T14:31:07;3.70;99.90
3466;DHT22;1747;48.884;9.160;2023-01-28T14:33:36;3.70;99.90
3466;DHT22;1747;48.884;9.160;2023-01-28T14:36:05;3.70;99.90
3466;DHT22;1747;48.884;9.160;2023-01-28T14:38:37;3.80;99.90
3466;DHT22;1747;48.884;9.160;2023-01-28T14:41:05;3.80;99.90
3466;DHT22;1747;48.884;9.160;2023-01-28T14:43:35;3.70;99.90
3466;DHT22;1747;48.884;9.160;2023-01-28T14:46:15;3.70;99.90
3466;DHT22;1747;48.884;9.160;2023-01-28T14:48:53;3.70;99.90
3466;DHT22;1747;48.884;9.160;2023-01-28T14:51:40;3.70;99.90
3466;DHT22;1747;48.884;9.160;2023-01-28T14:54:30;3.70;99.90
3466;DHT22;1747;48.884;9.160;2023-01-28T14:57:24;3.70;99.90
3466;DHT22;1747;48.884;9.160;2023-01-28T14:59:56;3.80;99.90
3466;DHT22;1747;48.884;9.160;2023-01-28T15:02:26;3.80;99.90
3466;DHT22;1747;48.884;9.160;2023-01-28T15:04:53;3.80;99.90
3466;DHT22;1747;48.884;9.160;2023-01-28T15:07:21;3.70;99.90
3466;DHT22;1747;48.884;9.160;2023-01-28T15:09:59;3.70;99.90
3466;DHT22;1747;48.884;9.160;2023-01-28T15:12:27;3.70;99.90
3466;DHT22;1747;48.884;9.160;2023-01-28T15:14:55;3.70;99.90
3466;DHT22;1747;48.884;9.160;2023-01-28T15:17:24;3.80;99.90
3466;DHT22;1747;48.884;9.160;2023-01-28T15:19:53;3.70;99.90
3466;DHT22;1747;48.884;9.160;2023-01-28T15:22:24;3.60;99.90
3466;DHT22;1747;48.884;9.160;2023-01-28T15:24:51;3.60;99.90
3466;DHT22;1747;48.884;9.160;2023-01-28T15:27:23;3.60;99.90
3466;DHT22;1747;48.884;9.160;2023-01-28T15:29:55;3.50;99.90
3466;DHT22;1747;48.884;9.160;2023-01-28T15:32:24;3.60;99.90
3466;DHT22;1747;48.884;9.160;2023-01-28T15:34:51;3.50;99.90
3466;DHT22;1747;48.884;9.160;2023-01-28T15:37:19;3.50;99.90
3466;DHT22;1747;48.884;9.160;2023-01-28T15:39:46;3.50;99.90
3466;DHT22;1747;48.884;9.160;2023-01-28T15:42:18;3.70;99.90
3466;DHT22;1747;48.884;9.160;2023-01-28T15:44:47;3.60;99.90
3466;DHT22;1747;48.884;9.160;2023-01-28T15:47:20;3.60;99.90
3466;DHT22;1747;48.884;9.160;2023-01-28T15:49:52;3.50;99.90
3466;DHT22;1747;48.884;9.160;2023-01-28T15:52:20;3.60;99.90
3466;DHT22;1747;48.884;9.160;2023-01-28T15:54:48;3.70;99.90
3466;DHT22;1747;48.884;9.160;2023-01-28T15:57:18;3.70;99.90
3466;DHT22;1747;48.884;9.160;2023-01-28T15:59:45;3.70;99.90
3466;DHT22;1747;48.884;9.160;2023-01-28T16:02:20;3.60;99.90
3466;DHT22;1747;48.884;9.160;2023-01-28T16:04:57;3.60;99.90
3466;DHT22;1747;48.884;9.160;2023-01-28T16:07:26;3.50;99.90
3466;DHT22;1747;48.884;9.160;2023-01-28T16:09:55;3.60;99.90
3466;DHT22;1747;48.884;9.160;2023-01-28T16:12:22;3.60;99.90
3466;DHT22;1747;48.884;9.160;2023-01-28T16:14:54;3.50;99.90
3466;DHT22;1747;48.884;9.160;2023-01-28T16:17:25;3.60;99.90
3466;DHT22;1747;48.884;9.160;2023-01-28T16:19:56;3.70;99.90
3466;DHT22;1747;48.884;9.160;2023-01-28T16:22:30;3.70;99.90
3466;DHT22;1747;48.884;9.160;2023-01-28T16:24:57;3.70;99.90
3466;DHT22;1747;48.884;9.160;2023-01-28T16:27:26;3.70;99.90
3466;DHT22;1747;48.884;9.160;2023-01-28T16:29:53;3.70;99.90
3466;DHT22;1747;48.884;9.160;2023-01-28T16:32:34;3.70;99.90
3466;DHT22;1747;48.884;9.160;2023-01-28T16:35:02;3.60;99.90
3466;DHT22;1747;48.884;9.160;2023-01-28T16:37:30;3.60;99.90
3466;DHT22;1747;48.884;9.160;2023-01-28T16:39:57;3.60;99.90
3466;DHT22;1747;48.884;9.160;2023-01-28T16:42:24;3.60;99.90
3466;DHT22;1747;48.884;9.160;2023-01-28T16:44:51;3.60;99.90
3466;DHT22;1747;48.884;9.160;2023-01-28T16:47:17;3.60;99.90
3466;DHT22;1747;48.884;9.160;2023-01-28T16:49:46;3.60;99.90
3466;DHT22;1747;48.884;9.160;2023-01-28T16:52:13;3.50;99.90
3466;DHT22;1747;48.884;9.160;2023-01-28T16:54:41;3.50;99.90